Time;durP1;ratioP1;P1;durP2;ratioP2;P2;SDS_P1;SDS_P2;PMS_P1;PMS_P2;Temp;Humidity;BMP_temperature;BMP_pressure;BME280_temperature;BME280_humidity;BME280_pressure;Samples;Min_cycle;Max_cycle;Signal;HPM_P1;HPM_P2
2022/01/29 00:01:08;;;;;;;18.23;4.73;;;;;;;;;;5069373;28;20116;-74
2022/01/29 00:03:35;;;;;;;18.93;3.83;;;;;;;;;;5069303;28;20089;-74
2022/01/29 00:06:02;;;;;;;17.17;4.43;;;;;;;;;;5069122;28;20028;-74
2022/01/29 00:08:28;;;;;;;8.63;3.17;;;;;;;;;;5068871;28;20034;-74
2022/01/29 00:11:02;;;;;;;11.57;3.87;;;;;;;;;;5070754;28;20044;-74
2022/01/29 00:13:27;;;;;;;15.23;4.40;;;;;;;;;;5068887;28;20119;-74
2022/01/29 00:15:53;;;;;;;24.73;3.70;;;;;;;;;;5070461;28;20099;-74
2022/01/29 00:18:18;;;;;;;8.63;3.20;;;;;;;;;;5070679;28;20456;-74
2022/01/29 00:20:44;;;;;;;20.20;3.57;;;;;;;;;;5072235;28;20058;-75
2022/01/29 00:23:09;;;;;;;11.90;3.30;;;;;;;;;;5072239;28;20090;-75
2022/01/29 00:25:35;;;;;;;12.50;3.47;;;;;;;;;;5070305;28;20103;-75
2022/01/29 00:28:00;;;;;;;19.37;3.20;;;;;;;;;;5070250;28;20534;-75
2022/01/29 00:30:35;;;;;;;10.10;3.00;;;;;;;;;;5070031;28;20344;-74
2022/01/29 00:33:00;;;;;;;15.13;4.13;;;;;;;;;;5070185;28;20104;-74
2022/01/29 00:35:26;;;;;;;23.23;4.37;;;;;;;;;;5069856;28;20455;-76
2022/01/29 00:37:51;;;;;;;27.10;4.50;;;;;;;;;;5069035;28;20028;-74
2022/01/29 00:40:17;;;;;;;17.47;3.63;;;;;;;;;;5070912;28;20059;-73
2022/01/29 00:42:42;;;;;;;17.23;4.10;;;;;;;;;;5069763;28;20028;-73
2022/01/29 00:45:08;;;;;;;11.97;3.97;;;;;;;;;;5068334;28;20550;-75
2022/01/29 00:47:34;;;;;;;17.10;4.07;;;;;;;;;;5069546;28;20432;-75
2022/01/29 00:49:59;;;;;;;12.37;3.63;;;;;;;;;;5068364;28;20029;-76
2022/01/29 00:52:25;;;;;;;19.83;4.70;;;;;;;;;;5069684;28;20443;-73
2022/01/29 00:54:50;;;;;;;15.83;3.93;;;;;;;;;;5070137;28;20067;-75
2022/01/29 00:57:16;;;;;;;12.77;3.57;;;;;;;;;;5069561;28;20477;-74
2022/01/29 00:59:42;;;;;;;18.33;3.63;;;;;;;;;;5068291;28;20436;-75
2022/01/29 01:02:09;;;;;;;9.07;3.47;;;;;;;;;;5069678;28;20028;-75
2022/01/29 01:04:38;;;;;;;13.87;3.40;;;;;;;;;;5069600;28;20033;-74
2022/01/29 01:07:08;;;;;;;22.47;4.37;;;;;;;;;;5068096;28;20043;-74
2022/01/29 01:09:33;;;;;;;12.73;3.63;;;;;;;;;;5068689;28;20060;-74
2022/01/29 01:11:59;;;;;;;16.93;4.47;;;;;;;;;;5069409;28;20055;-75
2022/01/29 01:14:25;;;;;;;13.70;4.20;;;;;;;;;;5069466;28;20017;-74
2022/01/29 01:16:50;;;;;;;16.60;4.83;;;;;;;;;;5069470;28;20020;-75
2022/01/29 01:19:16;;;;;;;16.10;4.03;;;;;;;;;;5067720;28;20469;-75
2022/01/29 01:21:41;;;;;;;13.27;3.40;;;;;;;;;;5069446;28;20036;-75
2022/01/29 01:24:07;;;;;;;16.73;3.43;;;;;;;;;;5069303;28;20050;-74
2022/01/29 01:26:32;;;;;;;16.17;4.30;;;;;;;;;;5069192;28;20475;-74
2022/01/29 01:28:58;;;;;;;26.20;4.10;;;;;;;;;;5067835;28;20312;-75
2022/01/29 01:31:24;;;;;;;11.40;3.50;;;;;;;;;;5067792;28;20138;-75
2022/01/29 01:33:50;;;;;;;17.50;3.37;;;;;;;;;;5069094;28;20502;-74
2022/01/29 01:36:19;;;;;;;10.70;3.03;;;;;;;;;;5069092;28;20507;-74
2022/01/29 01:38:53;;;;;;;17.70;3.97;;;;;;;;;;5067508;28;20040;-75
2022/01/29 01:41:24;;;;;;;12.17;3.20;;;;;;;;;;5068991;28;20027;-73
2022/01/29 01:43:50;;;;;;;16.27;3.93;;;;;;;;;;5067809;28;20028;-74
2022/01/29 01:46:16;;;;;;;15.13;3.83;;;;;;;;;;5067931;28;20108;-73
2022/01/29 01:48:41;;;;;;;15.80;4.20;;;;;;;;;;5067590;28;20366;-75
2022/01/29 01:51:07;;;;;;;14.13;3.17;;;;;;;;;;5069207;28;20484;-75
2022/01/29 01:53:33;;;;;;;21.63;4.17;;;;;;;;;;5067348;28;20123;-76
2022/01/29 01:55:58;;;;;;;23.13;4.10;;;;;;;;;;5067598;28;20020;-74
2022/01/29 01:58:24;;;;;;;12.10;3.97;;;;;;;;;;5067574;28;20477;-75
2022/01/29 02:00:50;;;;;;;13.23;3.63;;;;;;;;;;5067719;28;20067;-75
2022/01/29 02:03:15;;;;;;;18.10;3.90;;;;;;;;;;5067589;28;20476;-76
2022/01/29 02:05:43;;;;;;;20.63;4.57;;;;;;;;;;5084582;28;20024;-76
2022/01/29 02:08:10;;;;;;;12.70;4.43;;;;;;;;;;5069943;28;20048;-75
2022/01/29 02:10:35;;;;;;;13.27;3.77;;;;;;;;;;5069904;28;20096;-74
2022/01/29 02:13:03;;;;;;;13.57;4.00;;;;;;;;;;5068044;28;20107;-74
2022/01/29 02:15:30;;;;;;;13.27;3.33;;;;;;;;;;5069019;28;20042;-74
2022/01/29 02:17:55;;;;;;;15.00;3.77;;;;;;;;;;5067239;28;20345;-74
2022/01/29 02:20:26;;;;;;;19.73;3.73;;;;;;;;;;5068640;28;20031;-74
2022/01/29 02:22:52;;;;;;;12.70;3.70;;;;;;;;;;5068362;28;20032;-74
2022/01/29 02:25:46;;;;;;;15.37;3.87;;;;;;;;;;5068700;28;20029;-74
2022/01/29 02:28:15;;;;;;;16.83;4.00;;;;;;;;;;5067598;28;20035;-74
2022/01/29 02:30:44;;;;;;;20.93;3.77;;;;;;;;;;5068627;28;20024;-74
2022/01/29 02:33:13;;;;;;;18.50;3.03;;;;;;;;;;5068707;28;20040;-74
2022/01/29 02:35:44;;;;;;;17.73;3.70;;;;;;;;;;5067469;28;20472;-74
2022/01/29 02:38:11;;;;;;;15.90;3.30;;;;;;;;;;5068657;28;20094;-74
2022/01/29 02:40:53;;;;;;;12.00;3.57;;;;;;;;;;5050639;28;20493;-75
2022/01/29 02:43:42;;;;;;;9.43;2.40;;;;;;;;;;5067273;28;20364;-73
2022/01/29 02:48:45;;;;;;;16.00;2.67;;;;;;;;;;5072139;28;20087;-73
2022/01/29 02:51:10;;;;;;;14.20;3.00;;;;;;;;;;5072203;28;20473;-74
2022/01/29 02:53:36;;;;;;;18.23;4.23;;;;;;;;;;5072118;28;20029;-74
2022/01/29 02:56:02;;;;;;;12.37;2.97;;;;;;;;;;5072096;28;20016;-74
2022/01/29 02:58:27;;;;;;;18.57;3.10;;;;;;;;;;5072057;28;20035;-73
2022/01/29 03:00:53;;;;;;;18.30;3.83;;;;;;;;;;5071828;28;20545;-74
2022/01/29 03:03:18;;;;;;;15.40;3.23;;;;;;;;;;5070412;28;20496;-74
2022/01/29 03:05:44;;;;;;;11.80;3.13;;;;;;;;;;5071731;28;20025;-74
2022/01/29 03:08:09;;;;;;;13.13;4.03;;;;;;;;;;5071863;28;20466;-74
2022/01/29 03:10:35;;;;;;;14.23;3.60;;;;;;;;;;5071551;28;20430;-74
2022/01/29 03:13:01;;;;;;;10.47;2.80;;;;;;;;;;5071749;28;20025;-75
2022/01/29 03:15:26;;;;;;;15.97;3.70;;;;;;;;;;5069908;28;20077;-74
2022/01/29 03:17:52;;;;;;;13.00;3.47;;;;;;;;;;5072057;28;20503;-74
2022/01/29 03:20:17;;;;;;;9.60;3.17;;;;;;;;;;5071743;28;20107;-73
2022/01/29 03:22:43;;;;;;;12.97;3.43;;;;;;;;;;5070112;28;20472;-74
2022/01/29 03:25:08;;;;;;;11.47;2.97;;;;;;;;;;5086644;28;20037;-74
2022/01/29 03:27:34;;;;;;;18.77;3.87;;;;;;;;;;5071314;28;20047;-74
2022/01/29 03:30:01;;;;;;;16.67;2.93;;;;;;;;;;5070188;28;20444;-74
2022/01/29 03:32:26;;;;;;;12.17;2.97;;;;;;;;;;5069958;28;20040;-74
2022/01/29 03:34:52;;;;;;;6.67;2.43;;;;;;;;;;5070086;28;20036;-75
2022/01/29 03:37:17;;;;;;;12.40;2.70;;;;;;;;;;5071640;28;20482;-75
2022/01/29 03:39:44;;;;;;;9.43;3.30;;;;;;;;;;5069499;28;20068;-74
2022/01/29 03:42:13;;;;;;;10.27;2.37;;;;;;;;;;5070698;28;20052;-74
2022/01/29 03:44:39;;;;;;;12.93;2.97;;;;;;;;;;5070077;28;20031;-74
2022/01/29 03:47:04;;;;;;;16.77;3.37;;;;;;;;;;5086905;28;20029;-74
2022/01/29 03:49:30;;;;;;;17.43;3.03;;;;;;;;;;5070833;28;20032;-73
2022/01/29 03:51:55;;;;;;;13.03;3.13;;;;;;;;;;5071533;28;20483;-77
2022/01/29 03:54:21;;;;;;;17.43;3.73;;;;;;;;;;5071163;28;20033;-74
2022/01/29 03:56:46;;;;;;;12.47;3.20;;;;;;;;;;5070823;28;20052;-74
2022/01/29 03:59:12;;;;;;;13.83;3.23;;;;;;;;;;5070965;28;20362;-74
2022/01/29 04:01:37;;;;;;;9.27;2.93;;;;;;;;;;5070700;28;20033;-74
2022/01/29 04:04:03;;;;;;;7.97;3.03;;;;;;;;;;5070835;28;20089;-74
2022/01/29 04:06:30;;;;;;;7.80;3.43;;;;;;;;;;5070496;28;20060;-74
2022/01/29 04:08:56;;;;;;;16.07;3.73;;;;;;;;;;5069479;28;20038;-75
2022/01/29 04:11:22;;;;;;;19.07;4.03;;;;;;;;;;5070517;28;20532;-74
2022/01/29 04:13:49;;;;;;;12.10;4.40;;;;;;;;;;5069040;28;20032;-74
2022/01/29 04:16:16;;;;;;;9.80;4.07;;;;;;;;;;5070767;28;20028;-75
2022/01/29 04:18:42;;;;;;;14.43;4.03;;;;;;;;;;5068674;28;20029;-74
2022/01/29 04:21:08;;;;;;;10.37;3.70;;;;;;;;;;5071075;28;20036;-74
2022/01/29 04:23:35;;;;;;;8.47;4.07;;;;;;;;;;5070097;28;20044;-74
2022/01/29 04:26:04;;;;;;;18.47;3.93;;;;;;;;;;5068857;28;20028;-74
2022/01/29 04:28:35;;;;;;;16.60;4.03;;;;;;;;;;5052356;28;20028;-74
2022/01/29 04:31:07;;;;;;;18.67;3.90;;;;;;;;;;5070242;28;20388;-73
2022/01/29 04:33:32;;;;;;;14.00;4.30;;;;;;;;;;5070141;28;20032;-74
2022/01/29 04:36:00;;;;;;;10.80;4.07;;;;;;;;;;5068855;28;20036;-75
2022/01/29 04:38:27;;;;;;;17.70;4.80;;;;;;;;;;5070063;28;20102;-74
2022/01/29 04:40:54;;;;;;;12.53;4.87;;;;;;;;;;5070380;28;20173;-73
2022/01/29 04:43:20;;;;;;;17.80;4.40;;;;;;;;;;5070090;28;20028;-74
2022/01/29 04:45:46;;;;;;;13.63;4.20;;;;;;;;;;5069700;28;20017;-74
2022/01/29 04:48:12;;;;;;;7.93;4.17;;;;;;;;;;5068544;28;20420;-73
2022/01/29 04:50:38;;;;;;;18.10;4.33;;;;;;;;;;5069630;28;20028;-75
2022/01/29 04:53:04;;;;;;;14.33;5.60;;;;;;;;;;5069960;28;20017;-74
2022/01/29 04:55:30;;;;;;;12.93;5.47;;;;;;;;;;5068089;28;20031;-75
2022/01/29 04:57:55;;;;;;;10.23;4.77;;;;;;;;;;5069534;28;20359;-74
2022/01/29 05:00:21;;;;;;;13.47;6.13;;;;;;;;;;5069931;28;20473;-75
2022/01/29 05:02:51;;;;;;;11.57;4.87;;;;;;;;;;5068164;28;20448;-74
2022/01/29 05:05:17;;;;;;;10.83;5.17;;;;;;;;;;5069607;28;20020;-74
2022/01/29 05:07:43;;;;;;;18.70;5.83;;;;;;;;;;5068999;28;20088;-75
2022/01/29 05:10:09;;;;;;;15.50;7.30;;;;;;;;;;5068282;28;20035;-75
2022/01/29 05:12:53;;;;;;;12.27;5.43;;;;;;;;;;5069378;28;20059;-73
2022/01/29 05:28:49;;;;;;;11.93;5.57;;;;;;;;;;5069833;28;20055;-75
2022/01/29 05:31:14;;;;;;;11.33;5.77;;;;;;;;;;5069471;28;20379;-74
2022/01/29 05:33:40;;;;;;;13.83;5.50;;;;;;;;;;5067847;28;20076;-75
2022/01/29 05:36:06;;;;;;;11.53;5.60;;;;;;;;;;5069215;28;20430;-74
2022/01/29 05:38:32;;;;;;;14.77;5.53;;;;;;;;;;5069190;28;20057;-73
2022/01/29 05:40:58;;;;;;;20.27;6.23;;;;;;;;;;5068148;28;20484;-74
2022/01/29 05:43:23;;;;;;;12.23;6.10;;;;;;;;;;5069332;28;20048;-75
2022/01/29 05:45:49;;;;;;;14.80;6.20;;;;;;;;;;5068987;28;20025;-75
2022/01/29 05:48:15;;;;;;;11.97;5.80;;;;;;;;;;5067596;28;20043;-74
2022/01/29 05:50:41;;;;;;;11.87;6.37;;;;;;;;;;5068965;28;20351;-75
2022/01/29 05:53:06;;;;;;;14.13;6.57;;;;;;;;;;5069211;28;20028;-74
2022/01/29 05:55:32;;;;;;;16.93;6.60;;;;;;;;;;5069015;28;20030;-75
2022/01/29 05:57:57;;;;;;;13.17;6.70;;;;;;;;;;5067832;28;20105;-74
2022/01/29 06:00:23;;;;;;;14.33;6.60;;;;;;;;;;5084548;28;20024;-73
2022/01/29 06:03:06;;;;;;;12.03;6.33;;;;;;;;;;5067716;28;20082;-74
2022/01/29 06:05:32;;;;;;;13.87;6.67;;;;;;;;;;5067657;28;20178;-73
2022/01/29 06:07:57;;;;;;;16.70;6.80;;;;;;;;;;5068987;28;20490;-74
2022/01/29 06:10:24;;;;;;;17.87;7.83;;;;;;;;;;5069173;28;20033;-74
2022/01/29 06:13:06;;;;;;;13.13;6.07;;;;;;;;;;5067510;28;20025;-76
2022/01/29 06:15:34;;;;;;;19.17;7.18;;;;;;;;;;5068960;28;20081;-74
2022/01/29 06:18:01;;;;;;;15.20;6.23;;;;;;;;;;5068817;28;20388;-74
2022/01/29 06:20:27;;;;;;;15.60;7.63;;;;;;;;;;5069206;28;20103;-75
2022/01/29 06:22:52;;;;;;;14.97;6.67;;;;;;;;;;5071179;28;20237;-74
2022/01/29 06:25:18;;;;;;;16.20;6.63;;;;;;;;;;5071342;28;20161;-74
2022/01/29 06:27:44;;;;;;;12.47;6.93;;;;;;;;;;5072709;28;20048;-74
2022/01/29 06:30:10;;;;;;;14.23;6.90;;;;;;;;;;5072676;28;20060;-75
2022/01/29 06:32:36;;;;;;;16.37;7.40;;;;;;;;;;5071346;28;20044;-73
2022/01/29 06:35:02;;;;;;;14.23;6.73;;;;;;;;;;5073292;28;20054;-74
2022/01/29 06:37:27;;;;;;;23.33;8.57;;;;;;;;;;5072027;28;20036;-74
2022/01/29 06:39:53;;;;;;;13.27;7.17;;;;;;;;;;5071906;28;20049;-74
2022/01/29 06:42:18;;;;;;;13.30;7.63;;;;;;;;;;5072643;28;20029;-74
2022/01/29 06:44:44;;;;;;;12.67;6.73;;;;;;;;;;5070824;28;20083;-74
2022/01/29 06:47:09;;;;;;;17.97;7.70;;;;;;;;;;5072323;28;20032;-74
2022/01/29 06:49:35;;;;;;;15.73;8.93;;;;;;;;;;5072416;28;20108;-74
2022/01/29 06:52:00;;;;;;;17.60;7.50;;;;;;;;;;5070950;28;20070;-73
2022/01/29 06:54:26;;;;;;;18.57;8.13;;;;;;;;;;5070903;28;20040;-74
2022/01/29 06:56:51;;;;;;;26.67;8.23;;;;;;;;;;5071981;28;20107;-74
2022/01/29 06:59:17;;;;;;;20.87;8.53;;;;;;;;;;5070506;28;20082;-74
2022/01/29 07:01:42;;;;;;;16.87;8.07;;;;;;;;;;5070479;28;20431;-75
2022/01/29 07:04:08;;;;;;;15.80;7.40;;;;;;;;;;5071911;28;20063;-75
2022/01/29 07:06:34;;;;;;;17.60;7.37;;;;;;;;;;5071113;28;20032;-74
2022/01/29 07:08:59;;;;;;;19.07;8.13;;;;;;;;;;5087281;28;20035;-74
2022/01/29 07:11:25;;;;;;;18.63;7.80;;;;;;;;;;5071058;28;20055;-74
2022/01/29 07:14:00;;;;;;;14.87;8.00;;;;;;;;;;5070367;28;20088;-74
2022/01/29 07:16:27;;;;;;;18.73;10.20;;;;;;;;;;5070402;28;20052;-77
2022/01/29 07:18:52;;;;;;;14.80;7.17;;;;;;;;;;5053669;28;20480;-73
2022/01/29 07:21:19;;;;;;;18.60;7.97;;;;;;;;;;5072372;28;20143;-74
2022/01/29 07:23:45;;;;;;;20.70;6.97;;;;;;;;;;5070217;28;20468;-75
2022/01/29 07:26:10;;;;;;;17.00;8.10;;;;;;;;;;5070141;28;20036;-74
2022/01/29 07:28:36;;;;;;;17.47;7.53;;;;;;;;;;5071310;28;20035;-73
2022/01/29 07:31:02;;;;;;;13.57;7.43;;;;;;;;;;5071002;28;20127;-76
2022/01/29 07:33:28;;;;;;;17.17;7.80;;;;;;;;;;5070032;28;20546;-74
2022/01/29 07:35:55;;;;;;;15.90;8.03;;;;;;;;;;5071602;28;20028;-75
2022/01/29 07:38:21;;;;;;;14.10;7.17;;;;;;;;;;5071592;28;20063;-74
2022/01/29 07:40:46;;;;;;;21.13;7.87;;;;;;;;;;5069799;28;20312;-75
2022/01/29 07:43:12;;;;;;;24.63;8.57;;;;;;;;;;5069843;28;20036;-74
2022/01/29 07:45:37;;;;;;;17.43;7.23;;;;;;;;;;5069638;28;20025;-74
2022/01/29 07:48:03;;;;;;;12.07;6.67;;;;;;;;;;5070907;28;20078;-74
2022/01/29 07:50:28;;;;;;;13.93;6.93;;;;;;;;;;5069391;28;20032;-75
2022/01/29 07:52:59;;;;;;;14.13;7.53;;;;;;;;;;5071278;28;20035;-73
2022/01/29 07:55:25;;;;;;;13.87;7.23;;;;;;;;;;5069733;28;20564;-73
2022/01/29 07:57:51;;;;;;;21.43;8.70;;;;;;;;;;5069501;28;20039;-74
2022/01/29 08:00:17;;;;;;;12.83;7.10;;;;;;;;;;5086429;28;20468;-73
2022/01/29 08:02:43;;;;;;;15.40;7.63;;;;;;;;;;5070742;28;20387;-74
2022/01/29 08:05:10;;;;;;;15.53;7.93;;;;;;;;;;5071620;28;20114;-73
2022/01/29 08:07:36;;;;;;;18.27;7.57;;;;;;;;;;5072643;28;20035;-73
2022/01/29 08:10:02;;;;;;;20.03;8.87;;;;;;;;;;5070641;28;20032;-73
2022/01/29 08:12:28;;;;;;;18.03;8.23;;;;;;;;;;5071782;28;20090;-73
2022/01/29 08:14:53;;;;;;;19.20;8.33;;;;;;;;;;5071006;28;20036;-74
2022/01/29 08:17:19;;;;;;;16.63;6.47;;;;;;;;;;5071010;28;20346;-74
2022/01/29 08:19:44;;;;;;;13.90;7.40;;;;;;;;;;5068869;28;20033;-74
2022/01/29 08:22:10;;;;;;;15.07;7.60;;;;;;;;;;5068969;28;20125;-73
2022/01/29 08:24:35;;;;;;;16.00;8.43;;;;;;;;;;5070259;28;20150;-73
2022/01/29 08:27:01;;;;;;;20.33;8.87;;;;;;;;;;5068902;28;20024;-73
2022/01/29 08:29:26;;;;;;;20.07;8.47;;;;;;;;;;5070321;28;20036;-73
2022/01/29 08:31:52;;;;;;;15.17;7.83;;;;;;;;;;5069816;28;20035;-74
2022/01/29 08:34:18;;;;;;;15.80;7.83;;;;;;;;;;5068883;28;20036;-74
2022/01/29 08:36:43;;;;;;;16.03;7.50;;;;;;;;;;5069906;28;20025;-72
2022/01/29 08:39:09;;;;;;;19.30;8.43;;;;;;;;;;5070006;28;20497;-74
2022/01/29 08:41:34;;;;;;;12.83;7.80;;;;;;;;;;5069938;28;20037;-73
2022/01/29 08:44:00;;;;;;;20.07;7.57;;;;;;;;;;5069086;28;20396;-73
2022/01/29 08:46:25;;;;;;;15.07;8.13;;;;;;;;;;5069690;28;20392;-74
2022/01/29 08:48:51;;;;;;;15.90;8.13;;;;;;;;;;5069544;28;20109;-73
2022/01/29 08:51:16;;;;;;;16.47;8.47;;;;;;;;;;5068665;28;20032;-74
2022/01/29 08:53:42;;;;;;;25.83;8.13;;;;;;;;;;5069594;28;20028;-74
2022/01/29 08:56:07;;;;;;;21.53;8.50;;;;;;;;;;5068335;28;20472;-74
2022/01/29 08:58:33;;;;;;;22.67;10.90;;;;;;;;;;5068549;28;20042;-73
2022/01/29 09:00:59;;;;;;;20.83;8.27;;;;;;;;;;5069379;28;20024;-75
2022/01/29 09:03:25;;;;;;;18.30;8.97;;;;;;;;;;5068372;28;20425;-74
2022/01/29 09:05:51;;;;;;;16.20;8.97;;;;;;;;;;5069134;28;20074;-74
2022/01/29 09:08:17;;;;;;;15.07;8.90;;;;;;;;;;5068133;28;20032;-73
2022/01/29 09:10:44;;;;;;;16.63;8.80;;;;;;;;;;5068235;28;20032;-74
2022/01/29 09:13:12;;;;;;;20.30;9.37;;;;;;;;;;5069539;28;20452;-73
2022/01/29 09:15:37;;;;;;;15.77;8.07;;;;;;;;;;5068141;28;20016;-74
2022/01/29 09:18:03;;;;;;;18.60;8.37;;;;;;;;;;5084869;28;20025;-74
2022/01/29 09:20:29;;;;;;;18.60;8.77;;;;;;;;;;5069374;28;20040;-73
2022/01/29 09:22:54;;;;;;;18.13;8.30;;;;;;;;;;5069112;28;20036;-73
2022/01/29 09:25:20;;;;;;;18.20;9.67;;;;;;;;;;5067933;28;20032;-74
2022/01/29 09:27:45;;;;;;;19.20;8.93;;;;;;;;;;5069192;28;20107;-73
2022/01/29 09:30:11;;;;;;;18.17;7.77;;;;;;;;;;5068985;28;20047;-73
2022/01/29 09:32:37;;;;;;;16.60;8.60;;;;;;;;;;5069640;28;20036;-74
2022/01/29 09:35:03;;;;;;;25.63;9.57;;;;;;;;;;5069974;28;20037;-73
2022/01/29 09:37:28;;;;;;;17.50;8.23;;;;;;;;;;5069448;28;20021;-73
2022/01/29 09:39:54;;;;;;;20.00;7.63;;;;;;;;;;5069127;28;20053;-74
2022/01/29 09:42:20;;;;;;;15.43;7.53;;;;;;;;;;5068528;28;20432;-74
2022/01/29 09:44:48;;;;;;;17.30;8.13;;;;;;;;;;5069329;28;20389;-74
2022/01/29 09:47:18;;;;;;;18.50;9.07;;;;;;;;;;5070249;28;20108;-74
2022/01/29 09:49:45;;;;;;;16.40;8.13;;;;;;;;;;5069098;28;20024;-74
2022/01/29 09:52:11;;;;;;;15.93;9.13;;;;;;;;;;5068953;28;20032;-74
2022/01/29 09:54:36;;;;;;;21.70;8.17;;;;;;;;;;5071076;28;20094;-74
2022/01/29 09:57:02;;;;;;;22.67;9.37;;;;;;;;;;5072997;28;20075;-73
2022/01/29 09:59:28;;;;;;;13.40;7.07;;;;;;;;;;5073073;28;20406;-73
2022/01/29 10:01:53;;;;;;;13.73;7.47;;;;;;;;;;5071274;28;20389;-73
2022/01/29 10:04:19;;;;;;;14.97;8.43;;;;;;;;;;5073128;28;20059;-74
2022/01/29 10:06:47;;;;;;;14.23;7.90;;;;;;;;;;5073031;28;20417;-74
2022/01/29 10:09:32;;;;;;;18.63;7.93;;;;;;;;;;5071373;28;20032;-74
2022/01/29 10:12:27;;;;;;;13.27;7.77;;;;;;;;;;5072623;28;20365;-74
2022/01/29 10:14:55;;;;;;;16.50;7.10;;;;;;;;;;5070906;28;20067;-73
2022/01/29 10:17:39;;;;;;;16.17;8.63;;;;;;;;;;5072664;28;20051;-74
2022/01/29 10:20:19;;;;;;;16.80;7.63;;;;;;;;;;5071065;28;20046;-74
2022/01/29 10:22:55;;;;;;;14.40;8.10;;;;;;;;;;5072474;28;20040;-73
2022/01/29 10:25:28;;;;;;;12.17;6.83;;;;;;;;;;5071013;28;20059;-73
2022/01/29 10:28:18;;;;;;;16.63;7.43;;;;;;;;;;5072723;28;20021;-74
2022/01/29 10:30:50;;;;;;;13.37;7.67;;;;;;;;;;5070793;28;20109;-73
2022/01/29 10:33:20;;;;;;;13.80;7.38;;;;;;;;;;5072068;28;20029;-73
2022/01/29 10:35:48;;;;;;;14.87;7.03;;;;;;;;;;5072195;28;20092;-73
2022/01/29 10:38:18;;;;;;;12.20;6.77;;;;;;;;;;5072255;28;20036;-74
2022/01/29 10:40:44;;;;;;;17.97;7.63;;;;;;;;;;5072143;28;20532;-73
2022/01/29 10:43:10;;;;;;;17.90;8.23;;;;;;;;;;5070697;28;20111;-73
2022/01/29 10:45:36;;;;;;;12.87;6.93;;;;;;;;;;5087730;28;20108;-74
2022/01/29 10:48:05;;;;;;;12.27;6.97;;;;;;;;;;5071942;28;20028;-75
2022/01/29 10:50:31;;;;;;;15.27;7.13;;;;;;;;;;5072202;28;20109;-74
2022/01/29 10:52:57;;;;;;;10.57;5.97;;;;;;;;;;5071986;28;20031;-74
2022/01/29 10:55:23;;;;;;;15.37;6.40;;;;;;;;;;5071180;28;20020;-73
2022/01/29 10:57:49;;;;;;;13.63;6.33;;;;;;;;;;5073570;28;20031;-74
2022/01/29 11:00:21;;;;;;;13.00;6.27;;;;;;;;;;5073111;28;20054;-74
2022/01/29 11:02:48;;;;;;;14.70;7.22;;;;;;;;;;5072497;28;20024;-74
2022/01/29 11:05:14;;;;;;;16.83;7.40;;;;;;;;;;5071587;28;20028;-74
2022/01/29 11:07:42;;;;;;;12.37;5.90;;;;;;;;;;5053894;28;20036;-74
2022/01/29 11:10:09;;;;;;;11.47;6.57;;;;;;;;;;5071707;28;20021;-73
2022/01/29 11:12:37;;;;;;;15.17;6.93;;;;;;;;;;5087077;28;20028;-73
2022/01/29 11:15:03;;;;;;;13.33;6.80;;;;;;;;;;5071125;28;20431;-73
2022/01/29 11:17:31;;;;;;;11.27;6.17;;;;;;;;;;5071540;28;20112;-73
2022/01/29 11:19:57;;;;;;;13.20;6.57;;;;;;;;;;5071775;28;20020;-74
2022/01/29 11:22:26;;;;;;;9.60;5.90;;;;;;;;;;5070029;28;20031;-74
2022/01/29 11:24:58;;;;;;;12.53;7.47;;;;;;;;;;5069828;28;20025;-74
2022/01/29 11:27:27;;;;;;;14.33;7.30;;;;;;;;;;5070038;28;20113;-74
2022/01/29 11:30:03;;;;;;;15.97;7.57;;;;;;;;;;5071240;28;20633;-74
2022/01/29 11:32:33;;;;;;;13.07;7.23;;;;;;;;;;5071138;28;20425;-73
2022/01/29 11:35:08;;;;;;;11.70;7.23;;;;;;;;;;5070897;28;20070;-74
2022/01/29 11:37:50;;;;;;;11.67;6.27;;;;;;;;;;5069726;28;20495;-74
2022/01/29 11:40:22;;;;;;;14.48;6.72;;;;;;;;;;5070993;28;20458;-73
2022/01/29 11:42:53;;;;;;;;;;;;;;;;;;5070338;28;20070;-73
2022/01/29 11:45:50;;;;;;;10.97;6.90;;;;;;;;;;5069926;28;20003;-74
2022/01/29 11:48:19;;;;;;;10.27;6.37;;;;;;;;;;5069607;28;20056;-74
2022/01/29 11:50:48;;;;;;;10.13;5.73;;;;;;;;;;5070978;28;20059;-74
2022/01/29 11:53:16;;;;;;;11.93;5.33;;;;;;;;;;5071336;28;20147;-73
2022/01/29 11:55:46;;;;;;;10.23;5.87;;;;;;;;;;5069393;28;20024;-73
2022/01/29 11:58:28;;;;;;;11.40;6.33;;;;;;;;;;5070511;28;20484;-73
2022/01/29 12:00:59;;;;;;;14.95;6.45;;;;;;;;;;5069142;28;20025;-74
2022/01/29 12:03:44;;;;;;;12.67;5.97;;;;;;;;;;5071185;28;20020;-73
2022/01/29 12:06:20;;;;;;;12.07;6.50;;;;;;;;;;5070845;28;20028;-73
2022/01/29 12:09:04;;;;;;;10.57;6.27;;;;;;;;;;5070545;28;20477;-73
2022/01/29 12:11:35;;;;;;;13.67;6.87;;;;;;;;;;5069249;28;20036;-74
2022/01/29 12:14:13;;;;;;;10.57;6.07;;;;;;;;;;5053216;28;20040;-74
2022/01/29 12:16:50;;;;;;;13.30;6.17;;;;;;;;;;5069780;28;20077;-74
2022/01/29 12:19:39;;;;;;;14.97;6.43;;;;;;;;;;5069826;28;20033;-74
2022/01/29 12:22:26;;;;;;;13.13;6.87;;;;;;;;;;5069470;28;20038;-73
2022/01/29 12:24:58;;;;;;;10.80;5.97;;;;;;;;;;5070679;28;20073;-74
2022/01/29 12:27:38;;;;;;;;;;;;;;;;;;5071093;28;20389;-74
2022/01/29 12:30:04;;;;;;;8.80;4.97;;;;;;;;;;5068531;28;19934;-73
2022/01/29 12:32:29;;;;;;;14.13;6.97;;;;;;;;;;5070131;28;20024;-74
2022/01/29 12:34:55;;;;;;;13.23;6.93;;;;;;;;;;5068666;28;20024;-74
2022/01/29 12:37:21;;;;;;;11.17;6.17;;;;;;;;;;5068723;28;20115;-73
2022/01/29 12:39:48;;;;;;;15.80;6.57;;;;;;;;;;5068414;28;20437;-73
2022/01/29 12:44:54;;;;;;;11.30;6.87;;;;;;;;;;5069909;28;20051;-74
2022/01/29 12:47:34;;;;;;;14.80;7.33;;;;;;;;;;5068311;28;20032;-74
2022/01/29 12:49:59;;;;;;;14.20;7.03;;;;;;;;;;5069517;28;20028;-74
2022/01/29 12:52:27;;;;;;;15.30;6.50;;;;;;;;;;5068355;28;20401;-74
2022/01/29 12:54:58;;;;;;;11.97;6.00;;;;;;;;;;5069550;28;20427;-73
2022/01/29 12:57:25;;;;;;;13.47;6.83;;;;;;;;;;5068394;28;20487;-73
2022/01/29 12:59:52;;;;;;;12.90;6.03;;;;;;;;;;5069677;28;20052;-75
2022/01/29 13:02:21;;;;;;;11.87;6.97;;;;;;;;;;5069421;28;20024;-73
2022/01/29 13:04:48;;;;;;;12.13;6.07;;;;;;;;;;5069654;28;20016;-73
2022/01/29 13:07:17;;;;;;;12.90;6.03;;;;;;;;;;5068937;28;20032;-74
2022/01/29 13:09:42;;;;;;;11.57;6.20;;;;;;;;;;5069630;28;20021;-73
2022/01/29 13:12:12;;;;;;;12.03;6.03;;;;;;;;;;5067829;28;20064;-74
2022/01/29 13:14:39;;;;;;;9.37;4.83;;;;;;;;;;5067905;28;20446;-74
2022/01/29 13:17:07;;;;;;;11.57;6.37;;;;;;;;;;5068091;28;20047;-74
2022/01/29 13:19:34;;;;;;;10.27;6.37;;;;;;;;;;5067941;28;20476;-72
2022/01/29 13:22:03;;;;;;;10.20;5.73;;;;;;;;;;5067889;28;20078;-73
2022/01/29 13:24:35;;;;;;;11.43;6.03;;;;;;;;;;5084832;28;20017;-74
2022/01/29 13:27:14;;;;;;;14.52;6.32;;;;;;;;;;5067925;28;20139;-74
2022/01/29 13:29:47;;;;;;;11.47;4.87;;;;;;;;;;5067851;28;20392;-73
2022/01/29 13:32:25;;;;;;;9.37;5.23;;;;;;;;;;5069492;28;20503;-74
2022/01/29 13:34:51;;;;;;;6.80;4.67;;;;;;;;;;5068038;28;20064;-74
2022/01/29 13:37:34;;;;;;;8.93;4.17;;;;;;;;;;5067862;28;20222;-74
2022/01/29 13:40:04;;;;;;;10.73;5.80;;;;;;;;;;5069028;28;20500;-73
2022/01/29 13:42:33;;;;;;;9.10;5.10;;;;;;;;;;5069552;28;20421;-74
2022/01/29 13:45:16;;;;;;;7.43;4.10;;;;;;;;;;5067781;28;20031;-74
2022/01/29 13:48:02;;;;;;;7.35;4.22;;;;;;;;;;5068010;28;20031;-74
2022/01/29 13:50:37;;;;;;;7.83;4.60;;;;;;;;;;5069347;28;20028;-75
2022/01/29 13:53:14;;;;;;;8.80;4.10;;;;;;;;;;5068910;28;20522;-74
2022/01/29 13:55:57;;;;;;;7.20;4.00;;;;;;;;;;5067582;28;20100;-73
2022/01/29 13:58:24;;;;;;;7.07;3.57;;;;;;;;;;5067639;28;20052;-74
2022/01/29 14:01:02;;;;;;;5.20;3.60;;;;;;;;;;5067730;28;20074;-74
2022/01/29 14:04:00;;;;;;;6.37;3.40;;;;;;;;;;5069435;28;20021;-74
2022/01/29 14:06:30;;;;;;;5.97;3.23;;;;;;;;;;5061604;28;20037;-74
2022/01/29 14:09:09;;;;;;;5.37;3.07;;;;;;;;;;5068875;28;20036;-73
2022/01/29 14:11:54;;;;;;;6.83;3.40;;;;;;;;;;5068873;28;20036;-74
2022/01/29 14:14:21;;;;;;;5.67;3.20;;;;;;;;;;5067137;28;20107;-73
2022/01/29 14:16:47;;;;;;;4.70;2.87;;;;;;;;;;5068803;28;20035;-74
2022/01/29 14:19:17;;;;;;;5.63;2.90;;;;;;;;;;5067259;28;20032;-74
2022/01/29 14:21:46;;;;;;;9.27;3.20;;;;;;;;;;5068663;28;20175;-74
2022/01/29 14:24:12;;;;;;;4.43;2.27;;;;;;;;;;5067310;28;20028;-73
2022/01/29 14:26:38;;;;;;;4.60;2.80;;;;;;;;;;5084332;28;20024;-74
2022/01/29 14:29:03;;;;;;;7.97;4.20;;;;;;;;;;5068435;28;20109;-74
2022/01/29 14:31:29;;;;;;;6.00;2.87;;;;;;;;;;5067322;28;20025;-74
2022/01/29 14:33:55;;;;;;;8.43;3.30;;;;;;;;;;5068822;28;20040;-74
2022/01/29 14:36:20;;;;;;;4.37;2.50;;;;;;;;;;5067065;28;20457;-74
2022/01/29 14:38:46;;;;;;;3.53;2.10;;;;;;;;;;5068493;28;20041;-74
2022/01/29 14:41:11;;;;;;;4.97;2.30;;;;;;;;;;5068309;28;20078;-75
2022/01/29 14:43:37;;;;;;;4.73;2.33;;;;;;;;;;5072358;28;20021;-74
2022/01/29 14:46:04;;;;;;;4.37;2.07;;;;;;;;;;5070553;28;20021;-73
2022/01/29 14:48:30;;;;;;;5.10;2.20;;;;;;;;;;5072303;28;20099;-75
2022/01/29 14:50:55;;;;;;;3.73;2.10;;;;;;;;;;5072305;28;20136;-74
2022/01/29 14:53:22;;;;;;;2.90;1.47;;;;;;;;;;5070529;28;20097;-73
2022/01/29 14:55:48;;;;;;;4.30;2.40;;;;;;;;;;5070592;28;20040;-74
2022/01/29 14:58:14;;;;;;;2.20;1.63;;;;;;;;;;5053959;28;20052;-74